New York, NY (10034)

10:23 PM EDT on August 31, 2015 (GMT -0400)
Bronx Community College | | Change Station
CLOSE
Current Station
Personal Weather Station
Location: New York, NY
Elevation: 184 ft
Nearby Weather Stations

Elev 184 ft 40.86 °N, 73.91 °W | Updated 6 seconds ago

Partly Cloudy
Partly Cloudy
86.8 °F
Feels Like 93 °F
N
2.4
Wind Variable Wind from West
Gusts 8.5 mph

Today
High -- | Low -- °F
--% Chance of Precip.
Yesterday
High -- | Low -- °F
Precip. -- in
6:21 AM 7:30 PM
Waning Gibbous, 92% visible
Pressure 29.97 in
Visibility 10.0 miles
Clouds Scattered Clouds 7500 ft
Heat Index 93 °F
Dew Point 71 °F
Humidity 60%
Rainfall in
Snow Depth Not available.
UV 0.0 out of 12
Pollen 10.60 out of 12
Air Quality Not available.
Flu Activity Not available.
METAR KLGA 010151Z 25012KT 10SM SCT075 31/18 A2997 RMK AO2 SLP148 T03060178
Pressure 29.97 in
Visibility 10.0 miles
Clouds Scattered Clouds 7500 ft
Heat Index 93 °F
Dew Point 71 °F
Humidity 60%
Rainfall in
Snow Depth Not available.
UV 0.0 out of 12
Pollen 10.60 out of 12
Air Quality Not available.
Flu Activity Not available.
METAR KLGA 010151Z 25012KT 10SM SCT075 31/18 A2997 RMK AO2 SLP148 T03060178

10-Day Weather Forecast

×

Almanac

Astronomy

Aug. 31, 2015 Rise Set
Actual Time
Civil Twilight
Nautical Twilight
Astronomical Twilight
Moon
Length of Visible Light
Length of Day
Tomorrow will be .
, % of the Moon is Illuminated

Today's Extremes

State Highs State Lows

Community

WunderPhotos

Upload Photos

1,851,451 photos uploaded!

WunderBlogs® & News

Nearby

Air Quality

  Air Quality AQ Index Pollutant
Not available.

Snow Depth

Station Depth Elevation

Earthquake Activity

City Distance Mag. Time & Date
Minimum magnitude displayed is 2.5.

Coastal Water Temperatures

Place Temperature

Stations

Nearby Weather Stations

Station Location Temp. Windchill Dew Point Humidity Wind Precip. Elev Updated Type